Time;durP1;ratioP1;P1;durP2;ratioP2;P2;SDS_P1;SDS_P2;PMS_P1;PMS_P2;Temp;Humidity;BMP_temperature;BMP_pressure;BME280_temperature;BME280_humidity;BME280_pressure;Samples;Min_cycle;Max_cycle;Signal;HPM_P1;HPM_P2
2023/04/23 00:01:04;;;;;;;8.50;7.00;;;;;;;13.42;59.43;101560.77;106800;1269;25812;-53
2023/04/23 00:03:33;;;;;;;7.60;6.90;;;;;;;13.46;59.34;101557.18;106739;1270;23120;-53
2023/04/23 00:06:06;;;;;;;8.60;6.40;;;;;;;13.50;59.25;101554.48;106779;1269;25371;-53
2023/04/23 00:08:35;;;;;;;7.30;6.60;;;;;;;13.54;59.13;101553.73;106810;1269;25331;-54
2023/04/23 00:11:04;;;;;;;6.90;6.30;;;;;;;13.55;58.91;101554.77;106753;1270;25260;-53
2023/04/23 00:13:33;;;;;;;7.00;6.40;;;;;;;13.53;58.83;101550.08;106828;1269;22647;-54
2023/04/23 00:16:02;;;;;;;7.00;6.40;;;;;;;13.53;58.93;101550.60;106899;1269;22520;-53
2023/04/23 00:18:31;;;;;;;8.50;7.00;;;;;;;13.55;58.83;101551.96;106930;1269;22542;-53
2023/04/23 00:21:00;;;;;;;7.50;6.80;;;;;;;13.55;58.68;101553.02;106814;1269;25338;-53
2023/04/23 00:23:28;;;;;;;7.70;6.70;;;;;;;13.53;58.54;101551.48;106850;1269;25568;-53
2023/04/23 00:25:56;;;;;;;7.10;6.30;;;;;;;13.52;58.57;101553.58;106737;1269;26560;-53
2023/04/23 00:28:25;;;;;;;7.30;6.60;;;;;;;13.52;58.47;101553.77;106773;1270;25373;-54
2023/04/23 00:30:54;;;;;;;7.10;6.30;;;;;;;13.51;58.43;101551.17;106856;1269;25348;-54
2023/04/23 00:33:23;;;;;;;7.50;6.60;;;;;;;13.52;58.52;101553.75;106822;1269;22654;-53
2023/04/23 00:35:51;;;;;;;7.50;6.70;;;;;;;13.53;58.49;101554.95;106738;1273;22518;-53
2023/04/23 00:38:20;;;;;;;7.50;6.80;;;;;;;13.54;58.48;101551.30;106811;1269;22526;-53
2023/04/23 00:40:48;;;;;;;8.80;6.90;;;;;;;13.53;58.51;101554.27;106788;1270;25353;-54
2023/04/23 00:43:18;;;;;;;6.90;6.30;;;;;;;13.53;58.50;101552.69;106775;1269;22641;-53
2023/04/23 00:45:47;;;;;;;7.20;6.50;;;;;;;13.53;58.50;101556.02;106857;1269;22566;-53
2023/04/23 00:48:16;;;;;;;7.00;6.00;;;;;;;13.53;58.54;101552.86;106058;1269;1003970;-54
2023/04/23 00:50:45;;;;;;;7.50;6.80;;;;;;;13.54;58.45;101558.26;106768;1273;25240;-53
2023/04/23 00:53:13;;;;;;;8.40;7.20;;;;;;;13.54;58.38;101554.23;106794;1270;24257;-54
2023/04/23 00:55:42;;;;;;;7.60;6.80;;;;;;;13.54;58.22;101551.45;106796;1270;22520;-53
2023/04/23 00:58:10;;;;;;;7.70;6.70;;;;;;;13.54;58.23;101553.91;106603;1274;24257;-53
2023/04/23 01:00:45;;;;;;;7.20;6.50;;;;;;;13.53;58.27;101552.17;106843;1269;22511;-54
2023/04/23 01:03:17;;;;;;;7.10;6.50;;;;;;;13.52;58.38;101553.23;106835;1269;25351;-54
2023/04/23 01:05:45;;;;;;;;;;;;;;;13.50;58.43;101555.19;106691;1273;25354;-54
2023/04/23 01:08:15;;;;;;;7.40;6.70;;;;;;;13.48;58.44;101551.75;106754;1260;22526;-54
2023/04/23 01:10:44;;;;;;;8.20;6.80;;;;;;;13.43;58.35;101555.01;106674;1259;25370;-54
2023/04/23 01:13:13;;;;;;;9.70;7.00;;;;;;;13.35;58.47;101557.95;106680;1272;24344;-54
2023/04/23 01:15:42;;;;;;;9.50;6.60;;;;;;;13.33;58.68;101553.29;106784;1272;22521;-53
2023/04/23 01:18:11;;;;;;;7.60;6.90;;;;;;;13.33;58.77;101552.24;106655;1272;22566;-54
2023/04/23 01:20:40;;;;;;;8.20;7.20;;;;;;;13.33;58.96;101551.36;106339;1280;25253;-54
2023/04/23 01:23:08;;;;;;;7.90;6.60;;;;;;;13.34;59.18;101553.26;106772;1274;22548;-54
2023/04/23 01:25:36;;;;;;;8.60;6.40;;;;;;;13.36;59.20;101556.18;106743;1265;24224;-53
2023/04/23 01:28:07;;;;;;;8.30;6.30;;;;;;;13.37;59.27;101554.42;106710;1272;25348;-54
2023/04/23 01:30:38;;;;;;;8.10;7.10;;;;;;;13.38;59.42;101560.33;106649;1272;25345;-54
2023/04/23 01:33:06;;;;;;;6.90;6.10;;;;;;;13.39;59.36;101565.71;106684;1272;23926;-54
2023/04/23 01:35:35;;;;;;;7.30;5.60;;;;;;;13.39;59.38;101569.89;106685;1272;22711;-54
2023/04/23 01:38:03;;;;;;;7.60;6.40;;;;;;;13.39;59.42;101569.54;106815;1269;25389;-54
2023/04/23 01:40:32;;;;;;;7.10;6.40;;;;;;;13.40;59.52;101572.30;106870;1269;25291;-54
2023/04/23 01:43:00;;;;;;;6.90;6.20;;;;;;;13.41;59.40;101578.93;106897;1270;25342;-54
2023/04/23 01:45:30;;;;;;;6.80;6.00;;;;;;;13.39;59.28;101577.22;106763;1274;25307;-54
2023/04/23 01:48:01;;;;;;;6.60;6.00;;;;;;;13.36;59.33;101577.63;106896;1269;22561;-53
2023/04/23 01:50:30;;;;;;;6.70;6.10;;;;;;;13.34;59.28;101574.17;106822;1272;25452;-54
2023/04/23 01:52:58;;;;;;;8.80;6.70;;;;;;;13.34;59.31;101567.92;106727;1274;25479;-54
2023/04/23 01:55:28;;;;;;;6.90;6.30;;;;;;;13.33;59.59;101567.40;106832;1272;25366;-54
2023/04/23 01:57:56;;;;;;;7.40;6.30;;;;;;;13.33;59.79;101566.02;106967;1272;24418;-54
2023/04/23 02:00:24;;;;;;;7.20;6.00;;;;;;;13.33;60.14;101567.77;106789;1274;24830;-54
2023/04/23 02:02:53;;;;;;;7.20;6.50;;;;;;;13.34;60.30;101567.38;106803;1269;22730;-54
2023/04/23 02:05:21;;;;;;;8.10;6.10;;;;;;;13.36;60.29;101565.95;106809;1256;25424;-54
2023/04/23 02:07:50;;;;;;;7.30;6.40;;;;;;;13.37;60.13;101566.64;106718;1272;22510;-54
2023/04/23 02:10:19;;;;;;;11.00;6.40;;;;;;;13.37;60.13;101561.91;106889;1270;22506;-54
2023/04/23 02:12:47;;;;;;;6.70;6.00;;;;;;;13.38;59.99;101567.13;106852;1269;25376;-54
2023/04/23 02:15:16;;;;;;;8.50;7.00;;;;;;;13.36;59.97;101566.48;106871;1269;25354;-54
2023/04/23 02:17:45;;;;;;;9.70;6.90;;;;;;;13.35;59.98;101568.42;106759;1269;22531;-54
2023/04/23 02:20:13;;;;;;;7.50;6.10;;;;;;;13.33;59.96;101565.48;106761;1275;25345;-54
2023/04/23 02:22:42;;;;;;;9.50;5.70;;;;;;;13.32;60.07;101559.77;106859;1269;25358;-54
2023/04/23 02:25:10;;;;;;;5.80;5.20;;;;;;;13.30;60.25;101553.87;106810;1269;25328;-54
2023/04/23 02:27:39;;;;;;;6.60;5.90;;;;;;;13.29;60.91;101555.11;106771;1269;25393;-54
2023/04/23 02:30:08;;;;;;;7.40;5.90;;;;;;;13.26;61.43;101553.27;106815;1270;24379;-54
2023/04/23 02:32:37;;;;;;;6.70;6.00;;;;;;;13.24;61.92;101553.99;106803;1269;25237;-53
2023/04/23 02:35:08;;;;;;;6.60;5.60;;;;;;;13.25;62.06;101554.50;106667;1272;24232;-53
2023/04/23 02:37:36;;;;;;;6.70;6.00;;;;;;;13.27;62.07;101556.54;106715;1276;23090;-55
2023/04/23 02:40:05;;;;;;;8.00;5.60;;;;;;;13.31;62.09;101558.92;106851;1269;22647;-53
2023/04/23 02:42:34;;;;;;;6.60;6.00;;;;;;;13.34;61.99;101563.38;106774;1270;22546;-53
2023/04/23 02:45:03;;;;;;;8.30;5.80;;;;;;;13.37;61.89;101563.48;106840;1269;25341;-53
2023/04/23 02:47:31;;;;;;;8.60;5.40;;;;;;;13.39;61.63;101560.83;106857;1269;22650;-54
2023/04/23 02:50:04;;;;;;;8.00;5.60;;;;;;;13.41;61.30;101562.37;106843;1269;25390;-52
2023/04/23 02:52:33;;;;;;;6.80;5.40;;;;;;;13.41;61.23;101560.45;106776;1272;22523;-53
2023/04/23 02:55:02;;;;;;;7.00;5.70;;;;;;;13.41;61.05;101563.77;106858;1271;25444;-53
2023/04/23 02:57:31;;;;;;;6.20;5.60;;;;;;;13.40;61.05;101563.94;106816;1270;25399;-53
2023/04/23 03:00:00;;;;;;;6.10;5.50;;;;;;;13.39;60.93;101562.91;106727;1269;24352;-55
2023/04/23 03:02:35;;;;;;;8.90;5.60;;;;;;;13.38;60.79;101561.55;106737;1275;25360;-54
2023/04/23 03:05:05;;;;;;;7.50;5.80;;;;;;;13.35;60.72;101559.34;106853;1269;25379;-55
2023/04/23 03:07:34;;;;;;;9.40;6.00;;;;;;;13.34;60.73;101559.70;106783;1272;25396;-53
2023/04/23 03:10:04;;;;;;;8.30;5.80;;;;;;;13.33;60.65;101562.70;106888;1269;25369;-53
2023/04/23 03:12:33;;;;;;;6.50;5.80;;;;;;;13.32;60.57;101567.78;106841;1269;22534;-53
2023/04/23 03:15:02;;;;;;;6.70;5.70;;;;;;;13.30;60.49;101566.76;106784;1269;24237;-53
2023/04/23 03:17:32;;;;;;;6.30;5.70;;;;;;;13.29;60.44;101567.83;106815;1269;25360;-53
2023/04/23 03:20:02;;;;;;;6.40;5.70;;;;;;;13.27;60.34;101567.19;106018;1272;1003653;-54
2023/04/23 03:22:31;;;;;;;6.60;5.90;;;;;;;13.25;60.39;101567.91;106849;1269;25456;-54
2023/04/23 03:25:00;;;;;;;5.70;5.10;;;;;;;13.24;60.42;101568.63;106684;1272;22526;-54
2023/04/23 03:27:28;;;;;;;6.40;5.80;;;;;;;13.23;60.39;101572.15;106856;1269;25421;-54
2023/04/23 03:29:57;;;;;;;5.90;5.40;;;;;;;13.22;60.43;101570.95;106650;1270;24222;-54
2023/04/23 03:32:25;;;;;;;5.90;5.20;;;;;;;13.21;60.56;101571.13;106441;1277;22511;-54
2023/04/23 03:34:54;;;;;;;6.60;5.90;;;;;;;13.21;60.56;101569.91;106733;1274;22687;-54
2023/04/23 03:37:22;;;;;;;6.70;5.60;;;;;;;13.20;60.46;101572.71;106794;1272;25325;-54
2023/04/23 03:39:51;;;;;;;7.50;5.90;;;;;;;13.19;60.51;101575.71;106710;1256;25509;-54
2023/04/23 03:42:19;;;;;;;6.30;5.70;;;;;;;13.18;60.62;101582.00;106746;1270;25356;-54
2023/04/23 03:44:50;;;;;;;6.80;5.80;;;;;;;13.20;60.81;101585.80;106802;1269;22666;-54
2023/04/23 03:47:19;;;;;;;6.30;5.70;;;;;;;13.22;61.10;101593.94;106911;1270;25433;-54
2023/04/23 03:49:48;;;;;;;7.00;6.20;;;;;;;13.23;61.37;101602.63;106720;1274;24382;-54
2023/04/23 03:52:16;;;;;;;6.40;5.80;;;;;;;13.27;61.77;101609.16;106798;1269;24240;-54
2023/04/23 03:54:45;;;;;;;6.70;5.80;;;;;;;13.32;61.99;101608.91;106694;1269;25363;-53
2023/04/23 03:57:19;;;;;;;6.60;5.70;;;;;;;13.36;62.00;101606.73;106853;1269;26577;-53
2023/04/23 04:00:12;;;;;;;6.30;5.70;;;;;;;13.38;62.00;101607.38;106787;1269;22534;-53
2023/04/23 04:02:40;;;;;;;6.90;6.20;;;;;;;13.40;62.12;101611.17;106739;1273;24379;-53
2023/04/23 04:05:09;;;;;;;5.80;5.30;;;;;;;13.42;62.19;101610.25;106732;1269;24280;-53
2023/04/23 04:07:40;;;;;;;6.60;6.00;;;;;;;13.47;62.35;101608.77;106764;1271;24219;-53
2023/04/23 04:10:08;;;;;;;6.60;5.90;;;;;;;13.51;62.44;101610.77;106884;1269;25405;-53
2023/04/23 04:12:40;;;;;;;6.70;6.00;;;;;;;13.57;62.60;101615.20;106746;1272;22526;-53
2023/04/23 04:15:10;;;;;;;6.50;5.90;;;;;;;13.62;62.72;101619.45;106797;1269;22532;-53
2023/04/23 04:17:39;;;;;;;6.60;5.60;;;;;;;13.69;62.94;101622.80;106819;1272;25253;-53
2023/04/23 04:20:09;;;;;;;5.80;5.30;;;;;;;13.74;63.11;101624.42;106812;1269;22526;-52
2023/04/23 04:22:38;;;;;;;6.20;5.60;;;;;;;13.78;63.41;101624.68;106790;1269;22647;-52
2023/04/23 04:25:07;;;;;;;6.80;5.50;;;;;;;13.81;63.51;101627.41;106858;1269;25339;-53
2023/04/23 04:27:37;;;;;;;6.10;5.40;;;;;;;13.85;63.62;101628.54;106688;1269;22544;-53
2023/04/23 04:30:07;;;;;;;9.30;5.50;;;;;;;13.93;63.47;101622.98;106751;1269;25366;-53
2023/04/23 04:32:37;;;;;;;5.50;5.00;;;;;;;13.98;62.91;101627.39;106679;1275;24382;-53
2023/04/23 04:35:11;;;;;;;5.30;4.80;;;;;;;14.03;62.25;101627.98;106823;1270;23903;-53
2023/04/23 04:37:40;;;;;;;5.30;4.70;;;;;;;14.07;61.77;101631.55;106750;1272;22524;-52
2023/04/23 04:40:10;;;;;;;7.00;5.20;;;;;;;14.11;61.40;101640.35;106817;1269;25291;-53
2023/04/23 04:42:38;;;;;;;6.60;5.00;;;;;;;14.16;61.16;101638.67;106638;1269;134878;-53
2023/04/23 04:45:09;;;;;;;5.60;4.60;;;;;;;14.24;61.05;101644.25;106835;1269;25475;-53
2023/04/23 04:47:37;;;;;;;7.80;5.30;;;;;;;14.32;60.75;101642.69;106751;1275;24289;-53
2023/04/23 04:50:06;;;;;;;5.10;4.60;;;;;;;14.40;60.62;101649.14;106766;1269;25404;-53
2023/04/23 04:52:36;;;;;;;5.00;4.60;;;;;;;14.49;60.38;101651.02;106856;1272;24672;-53
2023/04/23 04:55:08;;;;;;;5.80;4.50;;;;;;;14.58;60.27;101652.38;106868;1269;26497;-53
2023/04/23 04:57:37;;;;;;;6.20;4.90;;;;;;;14.66;59.88;101657.41;106767;1269;22617;-53
2023/04/23 05:00:21;;;;;;;5.20;4.70;;;;;;;14.73;59.61;101659.02;106661;1270;24226;-53
2023/04/23 05:02:50;;;;;;;5.80;4.40;;;;;;;14.82;59.13;101659.66;106782;1269;22526;-53
2023/04/23 05:05:19;;;;;;;6.30;5.20;;;;;;;14.90;58.18;101657.38;106829;1269;22549;-53
2023/04/23 05:07:47;;;;;;;5.90;4.90;;;;;;;14.96;57.58;101659.46;106616;1275;24403;-53
2023/04/23 05:10:16;;;;;;;5.90;5.00;;;;;;;15.09;57.20;101662.98;106730;1259;26488;-53
2023/04/23 05:12:44;;;;;;;5.70;5.00;;;;;;;15.20;56.58;101666.18;106848;1269;25345;-53
2023/04/23 05:15:13;;;;;;;6.00;5.20;;;;;;;15.28;56.08;101668.77;106864;1269;22521;-53
2023/04/23 05:17:41;;;;;;;5.70;5.10;;;;;;;15.36;56.18;101663.64;106801;1269;25363;-53
2023/04/23 05:20:10;;;;;;;6.90;5.30;;;;;;;15.45;56.45;101668.50;106814;1272;22514;-52
2023/04/23 05:22:40;;;;;;;6.40;4.80;;;;;;;15.52;56.42;101669.71;106881;1269;22522;-53
2023/04/23 05:25:10;;;;;;;9.30;5.20;;;;;;;15.56;56.34;101671.52;106854;1273;25357;-52
2023/04/23 05:27:39;;;;;;;5.80;5.20;;;;;;;15.62;56.13;101666.98;106779;1265;23141;-52
2023/04/23 05:30:09;;;;;;;6.00;5.00;;;;;;;15.67;55.86;101670.50;106779;1274;25364;-52
2023/04/23 05:32:38;;;;;;;5.90;5.30;;;;;;;15.71;55.17;101671.44;106851;1269;25482;-53
2023/04/23 05:35:07;;;;;;;5.50;5.00;;;;;;;15.73;55.04;101678.39;106832;1272;25342;-53
2023/04/23 05:37:36;;;;;;;6.80;5.30;;;;;;;15.78;54.82;101680.16;106833;1269;24200;-52
2023/04/23 05:40:06;;;;;;;6.70;5.50;;;;;;;15.85;54.58;101684.86;106759;1272;25373;-53
2023/04/23 05:42:35;;;;;;;6.20;5.40;;;;;;;15.96;54.59;101687.52;106825;1270;22527;-52
2023/04/23 05:45:05;;;;;;;5.80;5.30;;;;;;;16.10;54.61;101692.52;106989;1269;22541;-52
2023/04/23 05:47:36;;;;;;;5.80;5.10;;;;;;;16.28;54.29;101695.13;106814;1272;25373;-52
2023/04/23 05:50:06;;;;;;;9.40;5.20;;;;;;;16.45;54.02;101701.45;106780;1269;25412;-52
2023/04/23 05:52:36;;;;;;;6.00;5.40;;;;;;;16.59;53.77;101696.51;106685;1270;22527;-53
2023/04/23 05:55:08;;;;;;;5.70;5.10;;;;;;;16.70;53.30;101696.83;106777;1269;25323;-52
2023/04/23 05:57:37;;;;;;;;;;;;;;;16.79;52.26;101698.45;106895;1269;22499;-53
2023/04/23 06:00:08;;;;;;;6.20;5.30;;;;;;;16.86;51.67;101702.60;106852;1270;24006;-53
2023/04/23 06:02:40;;;;;;;6.10;5.50;;;;;;;16.91;51.44;101707.70;106493;1269;22637;-53
2023/04/23 06:05:09;;;;;;;6.30;5.30;;;;;;;16.97;51.43;101709.95;106758;1269;24225;-53
2023/04/23 06:07:39;;;;;;;6.40;5.40;;;;;;;17.04;51.45;101708.14;106783;1269;22806;-53
2023/04/23 06:10:08;;;;;;;6.30;5.60;;;;;;;17.11;51.40;101710.73;106912;1272;25342;-52
2023/04/23 06:12:40;;;;;;;6.50;5.70;;;;;;;17.14;51.36;101715.00;106879;1269;22654;-53
2023/04/23 06:15:10;;;;;;;6.80;6.10;;;;;;;17.16;51.48;101715.27;106911;1269;22515;-52
2023/04/23 06:17:38;;;;;;;8.90;5.90;;;;;;;17.16;51.46;101716.14;106900;1269;22654;-53
2023/04/23 06:20:09;;;;;;;8.00;6.30;;;;;;;17.16;51.19;101715.77;106870;1269;25402;-53
2023/04/23 06:22:39;;;;;;;6.80;5.70;;;;;;;17.13;51.46;101721.70;106912;1269;25350;-53
2023/04/23 06:25:08;;;;;;;7.70;6.40;;;;;;;17.12;51.83;101725.91;106923;1270;25338;-52
2023/04/23 06:27:36;;;;;;;6.90;6.30;;;;;;;17.13;51.94;101725.55;103713;1272;1003726;-52
2023/04/23 06:30:11;;;;;;;6.30;5.60;;;;;;;17.12;52.13;101725.59;106748;1269;25357;-52
2023/04/23 06:32:39;;;;;;;6.50;5.80;;;;;;;17.10;52.40;101727.56;106925;1269;22542;-52
2023/04/23 06:35:08;;;;;;;8.40;6.30;;;;;;;17.11;52.68;101732.98;106938;1269;25491;-52
2023/04/23 06:37:37;;;;;;;8.70;6.40;;;;;;;17.13;52.81;101740.81;106764;1275;25425;-53
2023/04/23 06:40:06;;;;;;;8.00;6.30;;;;;;;17.17;52.93;101741.55;106831;1269;24225;-53
2023/04/23 06:42:35;;;;;;;6.20;5.60;;;;;;;17.29;53.10;101741.48;106828;1269;23864;-54
2023/04/23 06:45:34;;;;;;;10.30;5.80;;;;;;;17.56;53.59;101738.44;106844;1270;25335;-54
2023/04/23 06:48:02;;;;;;;7.20;5.80;;;;;;;17.92;52.98;101734.71;106860;1269;25324;-54
2023/04/23 06:50:31;;;;;;;6.70;5.70;;;;;;;18.27;52.14;101734.95;106916;1269;25321;-53
2023/04/23 06:52:59;;;;;;;7.00;5.70;;;;;;;18.65;51.19;101735.63;106936;1270;25459;-52
2023/04/23 06:55:28;;;;;;;7.90;5.80;;;;;;;19.03;50.42;101739.52;106701;1272;25533;-52
2023/04/23 06:57:57;;;;;;;6.10;5.50;;;;;;;19.38;49.68;101742.27;106835;1269;25533;-53
2023/04/23 07:00:25;;;;;;;6.30;5.40;;;;;;;19.72;48.78;101741.70;106713;1269;22527;-52
2023/04/23 07:02:54;;;;;;;6.60;5.50;;;;;;;20.05;48.23;101739.14;106855;1269;25405;-52
2023/04/23 07:05:23;;;;;;;6.60;5.80;;;;;;;20.36;47.86;101742.28;106804;1275;24241;-53
2023/04/23 07:07:51;;;;;;;8.30;5.90;;;;;;;20.66;46.72;101744.39;106802;1270;22513;-52
2023/04/23 07:10:20;;;;;;;7.70;5.80;;;;;;;20.90;46.09;101742.33;106092;1269;1003098;-53
2023/04/23 07:12:48;;;;;;;7.20;6.10;;;;;;;21.08;45.88;101743.77;106913;1269;25462;-53
2023/04/23 07:15:17;;;;;;;8.30;5.90;;;;;;;21.25;45.18;101745.55;106848;1269;25373;-52
2023/04/23 07:17:45;;;;;;;6.10;5.50;;;;;;;21.44;44.58;101744.76;106883;1254;25494;-53
2023/04/23 07:20:14;;;;;;;6.80;5.70;;;;;;;21.63;44.03;101747.98;106828;1277;25414;-53
2023/04/23 07:22:42;;;;;;;6.40;5.80;;;;;;;21.79;43.59;101748.56;106714;1272;26570;-53
2023/04/23 07:25:10;;;;;;;6.90;6.20;;;;;;;21.93;43.35;101745.88;106848;1269;25363;-52
2023/04/23 07:27:39;;;;;;;6.60;5.70;;;;;;;22.02;42.91;101739.76;106845;1269;25396;-53
2023/04/23 07:30:08;;;;;;;7.30;6.00;;;;;;;22.06;42.86;101741.30;106852;1269;24292;-53
2023/04/23 07:32:37;;;;;;;6.30;5.70;;;;;;;22.07;42.95;101742.84;106987;1269;22538;-53
2023/04/23 07:35:07;;;;;;;6.70;6.00;;;;;;;22.01;43.40;101742.11;106771;1269;24318;-52
2023/04/23 07:37:36;;;;;;;6.30;5.70;;;;;;;21.92;43.71;101749.13;106741;1275;25421;-52
2023/04/23 07:40:06;;;;;;;6.10;5.50;;;;;;;21.80;43.81;101748.88;106868;1271;24349;-53
2023/04/23 07:42:35;;;;;;;5.90;5.40;;;;;;;21.60;43.97;101748.66;106445;1270;22531;-53
2023/04/23 07:45:04;;;;;;;7.10;6.40;;;;;;;21.38;44.67;101747.50;106866;1270;22547;-52
2023/04/23 07:47:33;;;;;;;7.40;6.50;;;;;;;21.21;44.97;101751.79;106877;1270;24877;-53
2023/04/23 07:50:01;;;;;;;8.30;6.30;;;;;;;21.03;45.14;101752.27;106957;1273;25469;-52
2023/04/23 07:52:30;;;;;;;7.20;6.40;;;;;;;20.85;45.67;101752.81;106801;1272;25447;-52
2023/04/23 07:54:59;;;;;;;6.80;6.20;;;;;;;20.66;46.06;101751.44;106845;1269;25465;-53
2023/04/23 08:00:51;;;;;;;7.70;7.00;;;;;;;20.31;47.00;101758.91;103715;1291;545128;-51
2023/04/23 08:03:20;;;;;;;8.00;7.20;;;;;;;20.13;47.56;101759.37;106297;1280;22547;-52
2023/04/23 08:05:49;;;;;;;7.80;6.90;;;;;;;20.01;47.99;101763.64;106350;1276;23994;-53
2023/04/23 08:08:18;;;;;;;8.70;7.70;;;;;;;19.88;48.24;101761.91;106368;1276;25352;-53
2023/04/23 08:10:47;;;;;;;8.90;7.40;;;;;;;19.79;48.54;101756.70;106449;1279;25354;-53
2023/04/23 08:13:15;;;;;;;8.80;7.50;;;;;;;19.69;48.62;101753.95;106382;1283;25501;-52
2023/04/23 08:15:44;;;;;;;8.30;7.50;;;;;;;19.61;48.82;101756.09;106244;1276;219105;-52
2023/04/23 08:18:12;;;;;;;8.50;7.70;;;;;;;19.53;49.17;101758.02;106353;1276;22602;-53
2023/04/23 08:20:41;;;;;;;9.30;7.80;;;;;;;19.44;49.65;101757.50;106558;1276;25399;-53
2023/04/23 08:23:09;;;;;;;8.50;7.60;;;;;;;19.39;49.82;101759.14;106490;1276;25404;-53
2023/04/23 08:25:38;;;;;;;8.60;7.70;;;;;;;19.33;50.48;101756.04;106661;1275;24022;-53
2023/04/23 08:28:06;;;;;;;9.00;8.10;;;;;;;19.30;50.76;101755.63;106647;1275;25498;-53
2023/04/23 08:30:35;;;;;;;9.00;8.10;;;;;;;19.27;50.81;101755.90;106570;1275;25372;-53
2023/04/23 08:33:03;;;;;;;8.90;8.10;;;;;;;19.25;50.99;101756.91;106360;1275;26567;-54
2023/04/23 08:35:33;;;;;;;8.90;7.90;;;;;;;19.22;51.16;101755.42;106642;1275;22550;-54
2023/04/23 08:38:01;;;;;;;9.90;8.60;;;;;;;19.21;51.67;101756.69;106349;1276;23865;-52
2023/04/23 08:40:30;;;;;;;9.00;7.50;;;;;;;19.24;51.92;101756.23;106604;1275;25337;-52
2023/04/23 08:43:06;;;;;;;9.40;8.30;;;;;;;19.27;51.83;101758.36;106584;1276;24251;-52
2023/04/23 08:45:40;;;;;;;8.00;7.30;;;;;;;19.34;51.32;101758.45;106373;1278;25243;-53
2023/04/23 08:48:08;;;;;;;8.60;7.80;;;;;;;19.40;51.27;101760.48;106653;1276;22659;-53
2023/04/23 08:50:38;;;;;;;8.70;7.90;;;;;;;19.43;51.36;101764.38;106702;1276;22553;-53
2023/04/23 08:53:06;;;;;;;12.70;8.20;;;;;;;19.47;50.83;101764.77;106607;1275;22573;-52
2023/04/23 08:55:35;;;;;;;9.80;8.40;;;;;;;19.47;50.42;101764.92;106445;1276;25372;-52
2023/04/23 08:58:05;;;;;;;8.90;7.70;;;;;;;19.44;50.15;101763.30;106452;1276;25350;-52
2023/04/23 09:00:34;;;;;;;8.80;7.90;;;;;;;19.40;50.12;101764.19;106537;1276;22533;-51
2023/04/23 09:03:02;;;;;;;9.00;8.00;;;;;;;19.34;50.20;101764.78;106375;1276;24224;-52
2023/04/23 09:05:32;;;;;;;10.20;7.80;;;;;;;19.27;50.28;101765.60;106586;1275;22563;-52
2023/04/23 09:08:01;;;;;;;11.00;8.00;;;;;;;19.20;50.27;101766.95;106470;1274;25446;-52
2023/04/23 09:10:30;;;;;;;9.00;7.70;;;;;;;19.14;50.42;101761.75;106628;1276;25357;-52
2023/04/23 09:12:58;;;;;;;8.50;7.50;;;;;;;19.11;50.85;101762.58;106382;1276;24614;-52
2023/04/23 09:15:26;;;;;;;8.50;7.60;;;;;;;19.11;50.60;101760.63;106289;1278;25638;-52
2023/04/23 09:17:55;;;;;;;8.20;7.40;;;;;;;19.12;50.56;101758.86;106410;1277;25534;-52
2023/04/23 09:20:24;;;;;;;8.30;7.10;;;;;;;19.12;50.16;101761.13;106425;1279;23861;-53
2023/04/23 09:22:54;;;;;;;7.50;6.80;;;;;;;19.10;50.34;101757.50;106553;1274;25519;-52
2023/04/23 09:25:23;;;;;;;7.90;7.10;;;;;;;19.12;50.25;101758.65;106515;1276;24223;-52
2023/04/23 09:27:52;;;;;;;8.00;6.70;;;;;;;19.16;49.97;101754.64;106545;1274;25385;-52
2023/04/23 09:30:22;;;;;;;7.70;7.00;;;;;;;19.20;49.66;101754.63;106470;1276;24223;-52
2023/04/23 09:32:50;;;;;;;9.60;7.10;;;;;;;19.22;49.67;101753.48;106578;1275;25326;-52
2023/04/23 09:35:19;;;;;;;7.70;6.80;;;;;;;19.21;49.80;101753.52;106453;1276;25446;-52
2023/04/23 09:37:48;;;;;;;9.00;7.00;;;;;;;19.22;49.97;101748.40;106832;1272;25475;-53
2023/04/23 09:40:22;;;;;;;8.10;7.30;;;;;;;19.22;49.98;101750.14;106731;1276;22664;-52
2023/04/23 09:42:54;;;;;;;7.80;7.00;;;;;;;19.24;49.86;101748.65;106785;1257;24282;-52
2023/04/23 09:45:24;;;;;;;8.00;7.20;;;;;;;19.25;49.91;101747.39;106842;1273;24382;-52
2023/04/23 09:47:54;;;;;;;7.90;6.80;;;;;;;19.25;49.85;101748.23;106799;1269;22992;-54
2023/04/23 09:50:33;;;;;;;7.80;6.80;;;;;;;19.26;49.58;101747.52;106808;1272;22537;-53
2023/04/23 09:53:02;;;;;;;6.80;6.10;;;;;;;19.29;49.57;101750.36;107058;1269;25369;-53
2023/04/23 09:55:37;;;;;;;6.90;6.30;;;;;;;19.33;49.33;101749.88;107060;1268;22910;-53
2023/04/23 09:58:10;;;;;;;10.70;6.80;;;;;;;19.34;48.95;101753.19;107143;1269;22551;-53
2023/04/23 10:00:39;;;;;;;7.20;6.50;;;;;;;19.32;48.80;101753.60;107004;1267;25409;-53
2023/04/23 10:03:08;;;;;;;6.80;6.20;;;;;;;19.33;48.85;101755.50;107059;1267;25405;-53
2023/04/23 10:05:41;;;;;;;6.80;6.10;;;;;;;19.33;48.92;101749.85;106995;1269;22773;-52
2023/04/23 10:08:14;;;;;;;6.80;5.90;;;;;;;19.35;48.58;101749.27;106745;1272;25328;-53
2023/04/23 10:10:43;;;;;;;6.80;6.20;;;;;;;19.34;48.61;101750.89;107154;1268;22567;-53
2023/04/23 10:13:29;;;;;;;6.60;5.90;;;;;;;19.32;48.42;101750.41;106999;1270;22531;-53
2023/04/23 10:15:58;;;;;;;8.10;5.90;;;;;;;19.31;48.39;101749.91;106754;1256;25320;-53
2023/04/23 10:18:45;;;;;;;6.00;5.40;;;;;;;19.30;48.05;101747.70;106757;1270;25524;-52
2023/04/23 10:21:13;;;;;;;6.40;5.60;;;;;;;19.28;48.22;101752.36;106746;1270;24224;-53
2023/04/23 10:23:43;;;;;;;5.70;5.20;;;;;;;19.27;48.63;101752.58;106685;1272;25359;-53
2023/04/23 10:26:12;;;;;;;6.20;5.60;;;;;;;19.30;48.40;101755.79;106682;1274;22639;-53
2023/04/23 10:28:40;;;;;;;8.60;5.40;;;;;;;19.32;48.52;101755.52;106828;1270;22580;-53
2023/04/23 10:31:09;;;;;;;5.70;5.20;;;;;;;19.35;48.92;101755.95;106680;1278;25332;-52
2023/04/23 10:33:38;;;;;;;5.80;5.30;;;;;;;19.41;49.30;101753.60;106337;1278;25291;-53
2023/04/23 10:36:24;;;;;;;5.40;4.80;;;;;;;19.50;49.03;101748.60;106759;1270;24247;-52
2023/04/23 10:38:55;;;;;;;7.30;4.90;;;;;;;19.59;48.82;101743.36;106755;1272;25347;-52
2023/04/23 10:41:28;;;;;;;5.90;4.90;;;;;;;19.66;48.95;101742.30;106810;1272;24185;-52
2023/04/23 10:43:57;;;;;;;5.60;5.10;;;;;;;19.74;48.34;101736.66;106649;1275;22640;-52
2023/04/23 10:46:29;;;;;;;5.30;4.90;;;;;;;19.81;48.42;101735.66;106822;1271;22674;-52
2023/04/23 10:49:13;;;;;;;5.80;5.30;;;;;;;19.90;48.00;101735.77;107045;1269;23888;-53
2023/04/23 10:51:44;;;;;;;5.90;4.90;;;;;;;19.96;47.59;101729.69;107069;1253;24291;-52
2023/04/23 10:54:33;;;;;;;5.60;5.00;;;;;;;20.02;47.18;101730.09;107019;1267;25359;-53
2023/04/23 10:57:05;;;;;;;5.50;4.90;;;;;;;20.06;47.11;101728.36;107047;1268;25418;-52
2023/04/23 10:59:38;;;;;;;6.10;4.90;;;;;;;20.07;47.14;101728.98;106869;1276;22585;-52
2023/04/23 11:02:13;;;;;;;6.50;4.80;;;;;;;20.10;46.91;101725.00;107033;1269;22536;-52
2023/04/23 11:05:05;;;;;;;5.40;4.60;;;;;;;20.12;46.79;101722.95;107066;1268;26613;-52
2023/04/23 11:07:34;;;;;;;5.70;5.00;;;;;;;20.12;47.08;101722.95;106731;1275;22618;-52
2023/04/23 11:10:13;;;;;;;5.60;4.90;;;;;;;20.12;47.08;101718.73;107125;1271;25341;-53
2023/04/23 11:12:42;;;;;;;5.70;5.00;;;;;;;20.13;47.28;101712.86;106864;1264;26509;-53
2023/04/23 11:15:15;;;;;;;7.70;5.50;;;;;;;20.14;47.42;101714.41;106801;1269;24516;-53
2023/04/23 11:17:43;;;;;;;5.60;5.00;;;;;;;20.13;47.51;101714.09;107079;1269;24358;-53
2023/04/23 11:20:13;;;;;;;6.60;5.10;;;;;;;20.12;47.53;101716.77;106764;1274;25505;-52
2023/04/23 11:22:43;;;;;;;5.90;5.30;;;;;;;20.13;47.60;101715.18;106811;1272;25347;-52
2023/04/23 11:25:13;;;;;;;6.10;5.10;;;;;;;20.11;47.89;101711.34;107035;1256;25338;-52
2023/04/23 11:27:42;;;;;;;5.60;5.00;;;;;;;20.11;48.20;101709.63;106807;1272;24342;-52
2023/04/23 11:30:19;;;;;;;6.70;4.80;;;;;;;20.12;48.46;101710.10;107129;1269;25281;-52
2023/04/23 11:32:52;;;;;;;5.80;5.00;;;;;;;20.15;48.25;101710.83;106798;1272;22520;-52